Terminal Aerodrome Forecast
Issued by NWS Omaha/Valley, NE

Home | Current Version | Previous Version | Text Only | Print | Product List | Glossary Off
Versions: 1 2 3 4 5 6 7 8 9 10 11 12 13 14 15 16

000
FTUS43 KOAX 181721
TAFOFK
TAF
KOFK 181721Z 1818/1918 33015G23KT P6SM OVC015
      TEMPO 1818/1819 2SM -SN OVC008
     FM182300 34015KT P6SM OVC025
     FM190100 34008KT P6SM BKN035
     FM190400 33007KT P6SM BKN008
     FM190800 33007KT P6SM SCT035=

USA.gov is the U.S. government's official web portal to all federal, state and local government web resources and services.